Time;durP1;ratioP1;P1;durP2;ratioP2;P2;SDS_P1;SDS_P2;PMS_P1;PMS_P2;Temp;Humidity;BMP_temperature;BMP_pressure;BME280_temperature;BME280_humidity;BME280_pressure;Samples;Min_cycle;Max_cycle;Signal;HPM_P1;HPM_P2
2023/06/14 00:08:37;;;;;;;1.52;1.00;;;;;;;;;;20694277;28;20248;-71
2023/06/14 00:18:39;;;;;;;1.70;1.00;;;;;;;;;;20701507;28;20600;-71
2023/06/14 00:28:41;;;;;;;1.77;1.20;;;;;;;;;;20692461;28;20229;-72
2023/06/14 00:38:42;;;;;;;2.15;1.13;;;;;;;;;;20705353;28;20235;-71
2023/06/14 00:48:45;;;;;;;1.13;0.95;;;23.90;74.00;;;;;;20691025;28;20226;-71
2023/06/14 00:58:47;;;;;;;2.53;1.27;;;;;;;;;;20690437;28;20240;-71
2023/06/14 01:08:55;;;;;;;1.40;1.13;;;;;;;;;;20692598;28;20651;-71
2023/06/14 01:18:57;;;;;;;2.83;1.35;;;;;;;;;;20697661;28;20261;-71
2023/06/14 01:28:59;;;;;;;1.10;0.90;;;;;;;;;;20775375;23;20232;-86
2023/06/14 01:39:02;;;;;;;1.67;1.10;;;;;;;;;;20911442;28;20270;-85
2023/06/14 01:49:03;;;;;;;3.03;1.20;;;;;;;;;;20956398;28;20224;-84
2023/06/14 01:59:05;;;;;;;2.33;1.35;;;;;;;;;;21076140;28;20241;-84
2023/06/14 02:09:09;;;;;;;1.80;1.20;;;;;;;;;;20998012;28;20229;-82
2023/06/14 02:19:10;;;;;;;2.40;1.38;;;;;;;;;;21017293;28;20244;-83
2023/06/14 02:29:14;;;;;;;2.60;1.20;;;;;;;;;;21050456;28;20291;-82
2023/06/14 02:39:17;;;;;;;2.58;1.40;;;;;;;;;;21020796;28;20258;-82
2023/06/14 02:49:19;;;;;;;3.53;1.08;;;;;;;;;;21033483;28;20237;-83
2023/06/14 02:59:21;;;;;;;2.40;1.38;;;;;;;;;;21009830;28;20237;-83
2023/06/14 03:09:23;;;;;;;2.28;1.25;;;;;;;;;;21013527;28;20237;-83
2023/06/14 03:19:26;;;;;;;2.13;1.13;;;;;;;;;;21007687;28;20228;-83
2023/06/14 03:29:30;;;;;;;1.52;1.08;;;;;;;;;;20968934;28;20589;-82
2023/06/14 03:39:32;;;;;;;2.33;1.20;;;;;;;;;;20956177;28;21314;-82
2023/06/14 03:49:34;;;;;;;3.90;2.00;;;;;;;;;;20999238;28;20284;-81
2023/06/14 03:59:36;;;;;;;1.98;1.20;;;;;;;;;;20965175;28;20235;-82
2023/06/14 04:09:39;;;;;;;1.70;1.00;;;;;;;;;;20979237;28;20279;-82
2023/06/14 04:19:40;;;;;;;2.25;1.25;;;;;;;;;;20973808;28;20226;-83
2023/06/14 04:29:44;;;;;;;2.92;1.30;;;;;;;;;;20929060;28;20242;-82
2023/06/14 04:39:48;;;;;;;2.07;1.20;;;21.90;87.60;;;;;;20961300;28;20717;-82
2023/06/14 04:49:52;;;;;;;4.28;1.20;;;;;;;;;;20976537;28;20223;-83
2023/06/14 04:59:57;;;;;;;3.93;1.40;;;22.60;87.80;;;;;;20971863;28;20263;-83
2023/06/14 05:10:00;;;;;;;2.27;1.10;;;;;;;;;;20959695;28;20222;-82
2023/06/14 05:20:03;;;;;;;2.40;1.20;;;;;;;;;;20999948;28;20234;-81
2023/06/14 05:30:05;;;;;;;1.97;1.20;;;;;;;;;;20959573;28;20237;-83
2023/06/14 05:40:08;;;;;;;4.50;1.10;;;22.10;89.00;;;;;;20930903;28;20233;-82
2023/06/14 05:50:10;;;;;;;1.43;1.00;;;;;;;;;;20977252;28;20632;-82
2023/06/14 06:00:14;;;;;;;2.63;1.10;;;;;;;;;;21018465;28;20221;-83
2023/06/14 06:10:16;;;;;;;2.13;0.90;;;;;;;;;;20985749;28;20253;-83
2023/06/14 06:20:18;;;;;;;2.93;1.20;;;;;;;;;;21006027;28;20232;-80
2023/06/14 06:30:20;;;;;;;1.53;1.03;;;23.10;88.30;;;;;;20982978;28;20296;-81
2023/06/14 06:40:21;;;;;;;2.80;1.10;;;;;;;;;;20984448;28;20292;-83
2023/06/14 06:50:24;;;;;;;4.07;1.20;;;;;;;;;;21019820;28;20583;-80
2023/06/14 07:00:26;;;;;;;4.60;1.38;;;;;;;;;;21015016;28;20231;-81
2023/06/14 07:10:28;;;;;;;2.03;1.10;;;;;;;;;;20973161;28;20536;-81
2023/06/14 07:20:30;;;;;;;2.40;1.08;;;;;;;;;;20994846;28;20229;-80
2023/06/14 07:30:32;;;;;;;2.58;1.38;;;;;;;;;;20995578;28;20238;-83
2023/06/14 07:40:34;;;;;;;1.95;1.00;;;;;;;;;;21006069;28;20224;-80
2023/06/14 07:50:36;;;;;;;2.22;1.20;;;;;;;;;;21010553;28;20219;-82
2023/06/14 08:00:37;;;;;;;1.48;1.02;;;;;;;;;;20977387;28;20225;-81
2023/06/14 08:10:39;;;;;;;1.52;1.08;;;;;;;;;;21005871;28;20248;-82
2023/06/14 08:20:41;;;;;;;1.77;0.90;;;;;;;;;;20996261;28;20241;-82
2023/06/14 08:30:43;;;;;;;1.27;1.00;;;;;;;;;;21001220;28;20239;-82
2023/06/14 08:40:50;;;;;;;3.58;1.10;;;25.50;78.50;;;;;;21017164;28;20279;-82
2023/06/14 08:50:52;;;;;;;1.35;0.95;;;;;;;;;;20953559;28;20211;-82
2023/06/14 09:00:54;;;;;;;1.60;0.95;;;;;;;;;;20971574;28;20621;-83
2023/06/14 09:10:55;;;;;;;1.85;0.80;;;26.00;69.80;;;;;;20982955;28;20228;-83
2023/06/14 09:20:59;;;;;;;1.33;0.88;;;;;;;;;;20970994;28;20226;-83
2023/06/14 09:31:01;;;;;;;1.15;0.70;;;26.20;71.40;;;;;;20993773;28;20312;-83
2023/06/14 09:41:03;;;;;;;2.28;0.77;;;26.60;72.30;;;;;;20947879;28;20234;-83
2023/06/14 09:51:06;;;;;;;2.28;0.90;;;26.90;68.40;;;;;;20945801;28;20278;-82
2023/06/14 10:01:13;;;;;;;1.45;1.00;;;;;;;;;;20985834;28;20824;-83
2023/06/14 10:11:15;;;;;;;1.00;0.73;;;;;;;;;;21014279;28;20276;-83
2023/06/14 10:21:17;;;;;;;1.08;0.77;;;;;;;;;;20990375;28;20244;-82
2023/06/14 10:31:20;;;;;;;1.70;0.95;;;;;;;;;;20967535;28;20295;-82
2023/06/14 10:41:22;;;;;;;1.38;0.88;;;;;;;;;;20992510;28;20240;-82
2023/06/14 10:51:24;;;;;;;1.63;0.88;;;;;;;;;;20971400;28;20220;-83
2023/06/14 11:01:32;;;;;;;1.67;1.00;;;;;;;;;;20999099;28;20228;-83
2023/06/14 11:11:34;;;;;;;1.83;0.85;;;;;;;;;;20971310;28;20227;-84
2023/06/14 11:21:40;;;;;;;2.85;0.70;;;28.30;67.10;;;;;;21018173;28;20276;-83
2023/06/14 11:31:45;;;;;;;2.30;0.70;;;28.50;60.30;;;;;;20988558;28;20643;-82
2023/06/14 11:41:47;;;;;;;1.15;0.70;;;;;;;;;;20990122;28;20284;-82
2023/06/14 11:51:49;;;;;;;1.40;0.68;;;;;;;;;;21016777;28;20281;-84
2023/06/14 12:01:50;;;;;;;1.55;0.60;;;;;;;;;;20992763;28;20318;-82
2023/06/14 12:12:01;;;;;;;1.45;0.90;;;28.70;60.20;;;;;;20947159;28;20226;-83
2023/06/14 12:22:04;;;;;;;0.98;0.70;;;;;;;;;;20896960;28;20231;-83
2023/06/14 12:32:06;;;;;;;1.08;0.80;;;;;;;;;;20924637;28;20602;-82
2023/06/14 12:42:09;;;;;;;1.25;0.68;;;;;;;;;;20894124;28;20293;-83
2023/06/14 12:52:10;;;;;;;0.95;0.70;;;;;;;;;;20922159;28;20232;-83
2023/06/14 13:02:20;;;;;;;1.10;0.70;;;;;;;;;;20865195;28;20263;-83
2023/06/14 13:12:22;;;;;;;1.17;0.70;;;;;;;;;;20935809;28;20282;-83
2023/06/14 13:22:23;;;;;;;1.70;0.98;;;;;;;;;;20901374;28;20233;-83
2023/06/14 13:32:25;;;;;;;1.27;0.73;;;;;;;;;;20922488;28;20796;-82
2023/06/14 13:42:27;;;;;;;1.05;0.70;;;;;;;;;;20930552;28;20263;-83
2023/06/14 13:52:29;;;;;;;3.30;1.23;;;;;;;;;;20945576;28;20232;-83
2023/06/14 14:02:31;;;;;;;1.25;0.80;;;;;;;;;;20906461;28;20282;-82
2023/06/14 14:12:33;;;;;;;0.90;0.60;;;;;;;;;;20916997;28;20228;-82
2023/06/14 14:22:34;;;;;;;1.45;0.90;;;;;;;;;;20932990;28;20263;-82
2023/06/14 14:32:36;;;;;;;2.05;0.70;;;;;;;;;;20971168;28;20306;-82
2023/06/14 14:42:38;;;;;;;1.50;0.60;;;;;;;;;;20919296;28;20318;-82
2023/06/14 14:52:42;;;;;;;3.88;0.80;;;;;;;;;;20914497;28;20286;-83
2023/06/14 15:02:44;;;;;;;1.13;0.70;;;;;;;;;;20883914;28;20286;-83
2023/06/14 15:12:45;;;;;;;1.13;0.70;;;;;;;;;;20957869;28;20230;-84
2023/06/14 15:22:47;;;;;;;1.83;1.05;;;;;;;;;;21002768;28;20228;-82
2023/06/14 15:32:49;;;;;;;1.60;0.90;;;;;;;;;;20932796;28;20224;-83
2023/06/14 15:42:51;;;;;;;2.53;1.13;;;;;;;;;;20990454;28;20233;-85
2023/06/14 15:52:52;;;;;;;2.08;0.80;;;;;;;;;;20937999;28;20381;-86
2023/06/14 16:02:54;;;;;;;2.63;1.02;;;;;;;;;;21010041;28;20247;-84
2023/06/14 16:12:56;;;;;;;3.08;0.80;;;;;;;;;;20969570;28;20599;-83
2023/06/14 16:22:58;;;;;;;2.22;0.98;;;;;;;;;;20974325;28;20576;-83
2023/06/14 16:33:00;;;;;;;1.27;0.88;;;;;;;;;;20974064;28;20256;-82
2023/06/14 16:43:02;;;;;;;2.08;1.10;;;;;;;;;;20991559;28;20361;-82
2023/06/14 16:53:04;;;;;;;1.35;0.73;;;;;;;;;;21014388;28;20268;-83
2023/06/14 17:03:06;;;;;;;1.45;0.80;;;;;;;;;;20948350;28;20236;-83
2023/06/14 17:13:08;;;;;;;1.80;0.82;;;;;;;;;;20985706;28;20239;-84
2023/06/14 17:23:10;;;;;;;1.02;0.75;;;;;;;;;;20990814;28;20212;-84
2023/06/14 17:33:16;;;;;;;1.40;0.90;;;;;;;;;;20968522;28;20294;-84
2023/06/14 17:43:18;;;;;;;1.00;0.80;;;28.10;63.90;;;;;;20958987;28;20236;-82
2023/06/14 17:53:20;;;;;;;1.10;0.63;;;;;;;;;;21030934;28;20242;-81
2023/06/14 18:03:21;;;;;;;2.78;0.60;;;;;;;;;;21025221;28;20231;-82
2023/06/14 18:13:24;;;;;;;1.17;0.70;;;;;;;;;;21021089;28;20327;-83
2023/06/14 18:23:26;;;;;;;1.80;0.70;;;;;;;;;;21014663;28;20293;-83
2023/06/14 18:33:27;;;;;;;0.98;0.50;;;;;;;;;;20994304;28;20293;-82
2023/06/14 18:43:32;;;;;;;2.72;1.52;;;;;;;;;;21027200;28;20380;-82
2023/06/14 18:53:34;;;;;;;1.23;0.85;;;;;;;;;;20979053;28;20309;-84
2023/06/14 19:03:36;;;;;;;3.00;0.85;;;;;;;;;;21023740;28;20215;-83
2023/06/14 19:13:38;;;;;;;1.02;0.70;;;;;;;;;;20985589;28;20224;-83
2023/06/14 19:23:40;;;;;;;1.58;0.77;;;;;;;;;;20993538;28;20234;-83
2023/06/14 19:33:43;;;;;;;1.25;0.70;;;;;;;;;;20962949;28;20330;-84
2023/06/14 19:43:45;;;;;;;0.98;0.68;;;26.00;64.60;;;;;;21002302;28;20230;-85
2023/06/14 19:53:48;;;;;;;1.00;0.60;;;;;;;;;;20975134;28;20586;-84
2023/06/14 20:03:49;;;;;;;1.10;0.60;;;;;;;;;;21009375;28;20247;-84
2023/06/14 20:13:51;;;;;;;1.25;0.70;;;;;;;;;;20972569;28;20223;-83
2023/06/14 20:23:53;;;;;;;1.42;0.82;;;;;;;;;;20956952;28;20274;-83
2023/06/14 20:33:55;;;;;;;1.42;0.80;;;;;;;;;;20999546;28;20218;-82
2023/06/14 20:44:00;;;;;;;2.65;0.60;;;;;;;;;;21018079;28;20722;-84
2023/06/14 20:54:02;;;;;;;2.17;0.70;;;;;;;;;;20961344;28;20228;-84
2023/06/14 21:04:04;;;;;;;0.85;0.63;;;;;;;;;;20972509;28;20288;-84
2023/06/14 21:14:06;;;;;;;1.15;0.70;;;;;;;;;;20948439;28;20270;-84
2023/06/14 21:24:07;;;;;;;2.05;0.70;;;;;;;;;;20986550;28;20240;-83
2023/06/14 21:34:09;;;;;;;4.55;0.70;;;;;;;;;;21027579;28;20229;-81
2023/06/14 21:44:11;;;;;;;0.93;0.70;;;;;;;;;;21010903;28;20795;-83
2023/06/14 21:54:13;;;;;;;2.78;1.02;;;;;;;;;;20977996;28;20678;-83
2023/06/14 22:04:15;;;;;;;2.38;0.98;;;;;;;;;;20992307;28;20297;-83
2023/06/14 22:14:20;;;;;;;2.65;0.77;;;;;;;;;;21010651;28;20659;-83
2023/06/14 22:24:24;;;;;;;1.33;0.73;;;;;;;;;;20946368;28;20239;-83
2023/06/14 22:34:26;;;;;;;1.65;0.93;;;24.90;80.80;;;;;;20969999;28;20249;-82
2023/06/14 22:44:32;;;;;;;1.25;0.75;;;;;;;;;;21006031;28;20266;-82
2023/06/14 22:54:33;;;;;;;2.53;1.00;;;;;;;;;;20838963;23;20291;-69
2023/06/14 23:04:38;;;;;;;0.70;0.60;;;;;;;;;;20795831;28;20248;-69
2023/06/14 23:14:41;;;;;;;0.85;0.68;;;;;;;;;;20773011;28;20217;-70
2023/06/14 23:24:43;;;;;;;0.90;0.80;;;;;;;;;;20794152;28;20304;-70
2023/06/14 23:34:45;;;;;;;3.13;0.98;;;;;;;;;;20778033;28;20294;-69
2023/06/14 23:44:47;;;;;;;2.45;0.80;;;;;;;;;;20776412;28;20257;-71
2023/06/14 23:54:48;;;;;;;1.08;0.70;;;;;;;;;;20776676;28;20290;-71
